sensor_id;sensor_type;location;lat;lon;timestamp;P1;durP1;ratioP1;P2;durP2;ratioP2
9807;SDS011;4943;52.550;13.462;2023-03-02T00:00:15;10.83;;;6.23;;
9807;SDS011;4943;52.550;13.462;2023-03-02T00:02:43;11.27;;;5.30;;
9807;SDS011;4943;52.550;13.462;2023-03-02T00:05:12;5.73;;;4.10;;
9807;SDS011;4943;52.550;13.462;2023-03-02T00:07:41;8.43;;;5.70;;
9807;SDS011;4943;52.550;13.462;2023-03-02T00:10:09;12.03;;;6.40;;
9807;SDS011;4943;52.550;13.462;2023-03-02T00:12:37;6.33;;;3.83;;
9807;SDS011;4943;52.550;13.462;2023-03-02T00:15:07;8.47;;;4.60;;
9807;SDS011;4943;52.550;13.462;2023-03-02T00:17:36;6.50;;;4.73;;
9807;SDS011;4943;52.550;13.462;2023-03-02T00:20:04;10.23;;;5.13;;
9807;SDS011;4943;52.550;13.462;2023-03-02T00:22:37;6.23;;;4.87;;
9807;SDS011;4943;52.550;13.462;2023-03-02T00:25:07;8.63;;;5.30;;
9807;SDS011;4943;52.550;13.462;2023-03-02T00:27:36;8.27;;;4.33;;
9807;SDS011;4943;52.550;13.462;2023-03-02T00:30:05;9.60;;;4.63;;
9807;SDS011;4943;52.550;13.462;2023-03-02T00:32:34;6.93;;;4.93;;
9807;SDS011;4943;52.550;13.462;2023-03-02T00:35:02;5.43;;;4.17;;
9807;SDS011;4943;52.550;13.462;2023-03-02T00:37:31;13.47;;;5.37;;
9807;SDS011;4943;52.550;13.462;2023-03-02T00:40:00;7.23;;;4.97;;
9807;SDS011;4943;52.550;13.462;2023-03-02T00:42:31;5.63;;;3.53;;
9807;SDS011;4943;52.550;13.462;2023-03-02T00:45:00;7.90;;;4.50;;
9807;SDS011;4943;52.550;13.462;2023-03-02T00:47:28;6.97;;;5.53;;
9807;SDS011;4943;52.550;13.462;2023-03-02T00:49:56;5.83;;;4.20;;
9807;SDS011;4943;52.550;13.462;2023-03-02T00:52:24;8.03;;;4.40;;
9807;SDS011;4943;52.550;13.462;2023-03-02T00:54:52;7.83;;;4.53;;
9807;SDS011;4943;52.550;13.462;2023-03-02T00:57:20;9.97;;;3.77;;
9807;SDS011;4943;52.550;13.462;2023-03-02T00:59:49;5.43;;;3.60;;
9807;SDS011;4943;52.550;13.462;2023-03-02T01:02:17;6.77;;;3.93;;
9807;SDS011;4943;52.550;13.462;2023-03-02T01:04:46;5.67;;;3.77;;
9807;SDS011;4943;52.550;13.462;2023-03-02T01:07:16;8.30;;;4.13;;
9807;SDS011;4943;52.550;13.462;2023-03-02T01:09:45;7.23;;;4.67;;
9807;SDS011;4943;52.550;13.462;2023-03-02T01:12:14;6.07;;;4.30;;
9807;SDS011;4943;52.550;13.462;2023-03-02T01:14:43;5.13;;;3.63;;
9807;SDS011;4943;52.550;13.462;2023-03-02T01:17:14;8.83;;;3.83;;
9807;SDS011;4943;52.550;13.462;2023-03-02T01:19:42;8.87;;;3.73;;
9807;SDS011;4943;52.550;13.462;2023-03-02T01:22:10;5.53;;;3.43;;
9807;SDS011;4943;52.550;13.462;2023-03-02T01:24:38;6.83;;;3.37;;
9807;SDS011;4943;52.550;13.462;2023-03-02T01:27:07;5.40;;;4.37;;
9807;SDS011;4943;52.550;13.462;2023-03-02T01:29:35;6.93;;;4.50;;
9807;SDS011;4943;52.550;13.462;2023-03-02T01:32:05;5.40;;;3.37;;
9807;SDS011;4943;52.550;13.462;2023-03-02T01:34:34;6.87;;;3.93;;
9807;SDS011;4943;52.550;13.462;2023-03-02T01:37:02;3.50;;;3.10;;
9807;SDS011;4943;52.550;13.462;2023-03-02T01:39:30;5.13;;;3.30;;
9807;SDS011;4943;52.550;13.462;2023-03-02T01:41:59;6.93;;;3.77;;
9807;SDS011;4943;52.550;13.462;2023-03-02T01:44:34;5.27;;;3.53;;
9807;SDS011;4943;52.550;13.462;2023-03-02T01:47:05;4.27;;;3.87;;
9807;SDS011;4943;52.550;13.462;2023-03-02T01:49:42;8.37;;;4.23;;
9807;SDS011;4943;52.550;13.462;2023-03-02T01:52:12;4.70;;;3.13;;
9807;SDS011;4943;52.550;13.462;2023-03-02T01:54:41;9.13;;;4.43;;
9807;SDS011;4943;52.550;13.462;2023-03-02T01:57:15;4.30;;;3.90;;
9807;SDS011;4943;52.550;13.462;2023-03-02T01:59:51;4.90;;;3.43;;
9807;SDS011;4943;52.550;13.462;2023-03-02T02:02:22;6.23;;;3.40;;
9807;SDS011;4943;52.550;13.462;2023-03-02T02:04:51;4.07;;;3.63;;
9807;SDS011;4943;52.550;13.462;2023-03-02T02:07:22;7.87;;;3.83;;
9807;SDS011;4943;52.550;13.462;2023-03-02T02:09:50;5.20;;;3.47;;
9807;SDS011;4943;52.550;13.462;2023-03-02T02:12:20;8.47;;;4.53;;
9807;SDS011;4943;52.550;13.462;2023-03-02T02:14:49;3.80;;;3.00;;
9807;SDS011;4943;52.550;13.462;2023-03-02T02:17:18;5.97;;;3.67;;
9807;SDS011;4943;52.550;13.462;2023-03-02T02:19:50;5.70;;;3.70;;
9807;SDS011;4943;52.550;13.462;2023-03-02T02:22:35;4.67;;;4.27;;
9807;SDS011;4943;52.550;13.462;2023-03-02T02:25:10;4.87;;;3.13;;
9807;SDS011;4943;52.550;13.462;2023-03-02T02:27:50;4.23;;;3.37;;
9807;SDS011;4943;52.550;13.462;2023-03-02T02:30:18;8.67;;;5.97;;
9807;SDS011;4943;52.550;13.462;2023-03-02T02:32:48;8.47;;;3.77;;
9807;SDS011;4943;52.550;13.462;2023-03-02T02:35:19;5.87;;;4.33;;
9807;SDS011;4943;52.550;13.462;2023-03-02T02:37:53;8.93;;;4.67;;
9807;SDS011;4943;52.550;13.462;2023-03-02T02:40:37;5.87;;;5.30;;
9807;SDS011;4943;52.550;13.462;2023-03-02T02:43:09;7.47;;;6.07;;
9807;SDS011;4943;52.550;13.462;2023-03-02T02:45:40;5.77;;;4.57;;
9807;SDS011;4943;52.550;13.462;2023-03-02T02:48:09;5.30;;;3.40;;
9807;SDS011;4943;52.550;13.462;2023-03-02T02:50:41;7.57;;;4.37;;
9807;SDS011;4943;52.550;13.462;2023-03-02T02:53:10;4.03;;;3.67;;
9807;SDS011;4943;52.550;13.462;2023-03-02T02:55:40;6.10;;;4.33;;
9807;SDS011;4943;52.550;13.462;2023-03-02T02:58:15;6.57;;;4.13;;
9807;SDS011;4943;52.550;13.462;2023-03-02T03:00:51;11.67;;;3.20;;
9807;SDS011;4943;52.550;13.462;2023-03-02T03:03:23;8.37;;;5.30;;
9807;SDS011;4943;52.550;13.462;2023-03-02T03:05:57;3.63;;;3.13;;
9807;SDS011;4943;52.550;13.462;2023-03-02T03:11:23;6.70;;;4.90;;
9807;SDS011;4943;52.550;13.462;2023-03-02T03:13:56;4.43;;;3.50;;
9807;SDS011;4943;52.550;13.462;2023-03-02T03:16:28;5.93;;;4.33;;
9807;SDS011;4943;52.550;13.462;2023-03-02T03:19:03;6.67;;;3.00;;
9807;SDS011;4943;52.550;13.462;2023-03-02T03:21:34;6.87;;;4.87;;
9807;SDS011;4943;52.550;13.462;2023-03-02T03:24:02;4.17;;;3.27;;
9807;SDS011;4943;52.550;13.462;2023-03-02T03:26:30;3.77;;;3.40;;
9807;SDS011;4943;52.550;13.462;2023-03-02T03:29:01;3.23;;;2.83;;
9807;SDS011;4943;52.550;13.462;2023-03-02T03:31:29;4.13;;;2.90;;
9807;SDS011;4943;52.550;13.462;2023-03-02T03:33:57;5.20;;;2.97;;
9807;SDS011;4943;52.550;13.462;2023-03-02T03:36:26;4.73;;;3.87;;
9807;SDS011;4943;52.550;13.462;2023-03-02T03:38:55;4.33;;;2.67;;
9807;SDS011;4943;52.550;13.462;2023-03-02T03:41:24;7.33;;;3.83;;
9807;SDS011;4943;52.550;13.462;2023-03-02T03:43:52;5.30;;;3.77;;
9807;SDS011;4943;52.550;13.462;2023-03-02T03:46:22;5.63;;;4.40;;
9807;SDS011;4943;52.550;13.462;2023-03-02T03:48:50;5.07;;;3.00;;
9807;SDS011;4943;52.550;13.462;2023-03-02T03:51:18;4.80;;;3.90;;
9807;SDS011;4943;52.550;13.462;2023-03-02T03:53:46;8.57;;;4.63;;
9807;SDS011;4943;52.550;13.462;2023-03-02T03:56:25;9.73;;;5.40;;
9807;SDS011;4943;52.550;13.462;2023-03-02T03:58:53;3.73;;;3.20;;
9807;SDS011;4943;52.550;13.462;2023-03-02T04:01:33;7.03;;;4.13;;
9807;SDS011;4943;52.550;13.462;2023-03-02T04:04:03;5.13;;;3.93;;
9807;SDS011;4943;52.550;13.462;2023-03-02T04:06:32;4.37;;;3.97;;
9807;SDS011;4943;52.550;13.462;2023-03-02T04:09:01;5.33;;;4.37;;
9807;SDS011;4943;52.550;13.462;2023-03-02T04:11:30;7.23;;;5.07;;
9807;SDS011;4943;52.550;13.462;2023-03-02T04:13:58;6.43;;;4.00;;
9807;SDS011;4943;52.550;13.462;2023-03-02T04:16:26;7.03;;;3.90;;
9807;SDS011;4943;52.550;13.462;2023-03-02T04:18:56;5.07;;;3.27;;
9807;SDS011;4943;52.550;13.462;2023-03-02T04:21:25;6.63;;;4.07;;
9807;SDS011;4943;52.550;13.462;2023-03-02T04:23:53;10.37;;;4.50;;
9807;SDS011;4943;52.550;13.462;2023-03-02T04:26:21;6.50;;;4.73;;
9807;SDS011;4943;52.550;13.462;2023-03-02T04:28:51;7.13;;;4.20;;
9807;SDS011;4943;52.550;13.462;2023-03-02T04:31:19;5.00;;;4.17;;
9807;SDS011;4943;52.550;13.462;2023-03-02T04:33:47;5.47;;;4.50;;
9807;SDS011;4943;52.550;13.462;2023-03-02T04:36:17;5.77;;;4.13;;
9807;SDS011;4943;52.550;13.462;2023-03-02T04:38:45;7.53;;;4.50;;
9807;SDS011;4943;52.550;13.462;2023-03-02T04:41:14;4.17;;;3.60;;
9807;SDS011;4943;52.550;13.462;2023-03-02T04:43:42;5.13;;;4.13;;
9807;SDS011;4943;52.550;13.462;2023-03-02T04:46:11;5.67;;;3.07;;
9807;SDS011;4943;52.550;13.462;2023-03-02T04:48:41;8.23;;;4.40;;
9807;SDS011;4943;52.550;13.462;2023-03-02T04:51:11;7.13;;;5.57;;
9807;SDS011;4943;52.550;13.462;2023-03-02T04:53:49;6.43;;;3.90;;
9807;SDS011;4943;52.550;13.462;2023-03-02T04:56:18;6.43;;;4.33;;
9807;SDS011;4943;52.550;13.462;2023-03-02T04:58:46;4.20;;;3.33;;
9807;SDS011;4943;52.550;13.462;2023-03-02T05:01:15;8.47;;;3.67;;
9807;SDS011;4943;52.550;13.462;2023-03-02T05:03:46;5.67;;;3.90;;
9807;SDS011;4943;52.550;13.462;2023-03-02T05:06:14;5.57;;;2.80;;
9807;SDS011;4943;52.550;13.462;2023-03-02T05:08:44;7.20;;;4.53;;
9807;SDS011;4943;52.550;13.462;2023-03-02T05:11:12;6.67;;;4.63;;
9807;SDS011;4943;52.550;13.462;2023-03-02T05:13:47;7.33;;;6.47;;
9807;SDS011;4943;52.550;13.462;2023-03-02T05:16:15;5.07;;;3.30;;
9807;SDS011;4943;52.550;13.462;2023-03-02T05:18:44;8.07;;;5.60;;
9807;SDS011;4943;52.550;13.462;2023-03-02T05:21:13;8.63;;;6.33;;
9807;SDS011;4943;52.550;13.462;2023-03-02T05:23:43;10.13;;;6.10;;
9807;SDS011;4943;52.550;13.462;2023-03-02T05:26:11;11.63;;;7.63;;
9807;SDS011;4943;52.550;13.462;2023-03-02T05:28:40;8.93;;;5.00;;
9807;SDS011;4943;52.550;13.462;2023-03-02T05:31:08;8.80;;;6.73;;
9807;SDS011;4943;52.550;13.462;2023-03-02T05:33:40;7.50;;;6.57;;
9807;SDS011;4943;52.550;13.462;2023-03-02T05:36:10;9.40;;;7.00;;
9807;SDS011;4943;52.550;13.462;2023-03-02T05:38:38;5.93;;;4.27;;
9807;SDS011;4943;52.550;13.462;2023-03-02T05:41:08;8.83;;;6.20;;
9807;SDS011;4943;52.550;13.462;2023-03-02T05:43:36;8.97;;;5.47;;
9807;SDS011;4943;52.550;13.462;2023-03-02T05:46:04;7.83;;;7.03;;
9807;SDS011;4943;52.550;13.462;2023-03-02T05:48:32;9.90;;;7.40;;
9807;SDS011;4943;52.550;13.462;2023-03-02T05:51:00;9.40;;;7.90;;
9807;SDS011;4943;52.550;13.462;2023-03-02T05:53:28;7.80;;;5.20;;
9807;SDS011;4943;52.550;13.462;2023-03-02T05:55:56;8.57;;;6.67;;
9807;SDS011;4943;52.550;13.462;2023-03-02T05:58:25;8.20;;;7.27;;
9807;SDS011;4943;52.550;13.462;2023-03-02T06:00:53;15.10;;;7.67;;
9807;SDS011;4943;52.550;13.462;2023-03-02T06:03:22;8.97;;;7.03;;
9807;SDS011;4943;52.550;13.462;2023-03-02T06:05:50;11.40;;;7.97;;
9807;SDS011;4943;52.550;13.462;2023-03-02T06:08:18;14.23;;;7.83;;
9807;SDS011;4943;52.550;13.462;2023-03-02T06:10:47;7.77;;;6.33;;
9807;SDS011;4943;52.550;13.462;2023-03-02T06:13:16;12.47;;;9.37;;
9807;SDS011;4943;52.550;13.462;2023-03-02T06:15:45;10.17;;;7.40;;
9807;SDS011;4943;52.550;13.462;2023-03-02T06:18:13;16.63;;;10.20;;
9807;SDS011;4943;52.550;13.462;2023-03-02T06:20:42;9.60;;;8.00;;
9807;SDS011;4943;52.550;13.462;2023-03-02T06:23:10;13.47;;;7.90;;
9807;SDS011;4943;52.550;13.462;2023-03-02T06:25:38;8.30;;;6.50;;
9807;SDS011;4943;52.550;13.462;2023-03-02T06:28:08;9.20;;;7.73;;
9807;SDS011;4943;52.550;13.462;2023-03-02T06:30:37;11.53;;;10.20;;
9807;SDS011;4943;52.550;13.462;2023-03-02T06:33:06;11.97;;;10.63;;
9807;SDS011;4943;52.550;13.462;2023-03-02T06:35:34;9.67;;;8.67;;
9807;SDS011;4943;52.550;13.462;2023-03-02T06:38:02;11.57;;;8.73;;
9807;SDS011;4943;52.550;13.462;2023-03-02T06:40:30;4.90;;;4.03;;
9807;SDS011;4943;52.550;13.462;2023-03-02T06:42:58;11.30;;;9.63;;
9807;SDS011;4943;52.550;13.462;2023-03-02T06:45:29;10.83;;;9.17;;
9807;SDS011;4943;52.550;13.462;2023-03-02T06:47:59;11.80;;;10.50;;
9807;SDS011;4943;52.550;13.462;2023-03-02T06:50:29;12.97;;;8.00;;
9807;SDS011;4943;52.550;13.462;2023-03-02T06:52:57;10.50;;;9.50;;
9807;SDS011;4943;52.550;13.462;2023-03-02T06:55:26;9.33;;;7.83;;
9807;SDS011;4943;52.550;13.462;2023-03-02T06:57:54;10.47;;;9.50;;
9807;SDS011;4943;52.550;13.462;2023-03-02T07:00:22;12.27;;;9.47;;
9807;SDS011;4943;52.550;13.462;2023-03-02T07:02:53;14.13;;;12.53;;
9807;SDS011;4943;52.550;13.462;2023-03-02T07:05:22;11.17;;;10.17;;
9807;SDS011;4943;52.550;13.462;2023-03-02T07:07:53;10.50;;;9.57;;
9807;SDS011;4943;52.550;13.462;2023-03-02T07:10:21;10.20;;;9.20;;
9807;SDS011;4943;52.550;13.462;2023-03-02T07:12:49;7.60;;;6.87;;
9807;SDS011;4943;52.550;13.462;2023-03-02T07:15:18;10.20;;;9.40;;
9807;SDS011;4943;52.550;13.462;2023-03-02T07:17:46;8.20;;;6.53;;
9807;SDS011;4943;52.550;13.462;2023-03-02T07:20:14;13.57;;;12.33;;
9807;SDS011;4943;52.550;13.462;2023-03-02T07:22:43;11.03;;;9.83;;
9807;SDS011;4943;52.550;13.462;2023-03-02T07:25:13;6.17;;;5.53;;
9807;SDS011;4943;52.550;13.462;2023-03-02T07:27:41;9.97;;;9.07;;
9807;SDS011;4943;52.550;13.462;2023-03-02T07:30:09;10.87;;;8.90;;
9807;SDS011;4943;52.550;13.462;2023-03-02T07:32:40;9.03;;;8.30;;
9807;SDS011;4943;52.550;13.462;2023-03-02T07:35:08;10.67;;;9.60;;
9807;SDS011;4943;52.550;13.462;2023-03-02T07:37:36;10.37;;;9.60;;
9807;SDS011;4943;52.550;13.462;2023-03-02T07:40:05;6.13;;;5.70;;
9807;SDS011;4943;52.550;13.462;2023-03-02T07:42:35;7.53;;;6.37;;
9807;SDS011;4943;52.550;13.462;2023-03-02T07:45:03;8.87;;;5.53;;
9807;SDS011;4943;52.550;13.462;2023-03-02T07:47:32;11.63;;;9.93;;
9807;SDS011;4943;52.550;13.462;2023-03-02T07:50:00;11.40;;;10.37;;
9807;SDS011;4943;52.550;13.462;2023-03-02T07:52:29;9.33;;;8.57;;
9807;SDS011;4943;52.550;13.462;2023-03-02T07:54:57;11.97;;;9.10;;
9807;SDS011;4943;52.550;13.462;2023-03-02T07:57:25;11.00;;;9.07;;
9807;SDS011;4943;52.550;13.462;2023-03-02T07:59:54;7.57;;;6.87;;
9807;SDS011;4943;52.550;13.462;2023-03-02T08:13:46;14.17;;;10.90;;
9807;SDS011;4943;52.550;13.462;2023-03-02T08:16:16;14.00;;;12.57;;
9807;SDS011;4943;52.550;13.462;2023-03-02T08:18:44;17.00;;;15.40;;
9807;SDS011;4943;52.550;13.462;2023-03-02T08:21:13;19.57;;;17.53;;
9807;SDS011;4943;52.550;13.462;2023-03-02T08:23:42;19.60;;;17.30;;
9807;SDS011;4943;52.550;13.462;2023-03-02T08:26:11;16.83;;;13.07;;
9807;SDS011;4943;52.550;13.462;2023-03-02T08:28:42;22.07;;;17.97;;
9807;SDS011;4943;52.550;13.462;2023-03-02T08:31:11;20.23;;;18.27;;
9807;SDS011;4943;52.550;13.462;2023-03-02T08:33:41;16.27;;;14.70;;
9807;SDS011;4943;52.550;13.462;2023-03-02T08:36:12;19.30;;;15.83;;
9807;SDS011;4943;52.550;13.462;2023-03-02T08:38:42;15.17;;;13.80;;
9807;SDS011;4943;52.550;13.462;2023-03-02T08:41:11;20.07;;;18.10;;
9807;SDS011;4943;52.550;13.462;2023-03-02T08:43:40;15.00;;;12.67;;
9807;SDS011;4943;52.550;13.462;2023-03-02T08:46:09;19.17;;;14.43;;
9807;SDS011;4943;52.550;13.462;2023-03-02T08:48:43;7.53;;;6.93;;
9807;SDS011;4943;52.550;13.462;2023-03-02T08:51:12;10.37;;;9.57;;
9807;SDS011;4943;52.550;13.462;2023-03-02T08:53:43;8.43;;;4.93;;
9807;SDS011;4943;52.550;13.462;2023-03-02T08:56:15;9.00;;;5.60;;
9807;SDS011;4943;52.550;13.462;2023-03-02T08:58:44;10.40;;;9.03;;
9807;SDS011;4943;52.550;13.462;2023-03-02T09:01:14;11.57;;;9.43;;
9807;SDS011;4943;52.550;13.462;2023-03-02T09:03:44;16.37;;;12.27;;
9807;SDS011;4943;52.550;13.462;2023-03-02T09:06:13;8.60;;;7.80;;
9807;SDS011;4943;52.550;13.462;2023-03-02T09:08:41;18.47;;;13.07;;
9807;SDS011;4943;52.550;13.462;2023-03-02T09:11:09;13.67;;;12.27;;
9807;SDS011;4943;52.550;13.462;2023-03-02T09:13:37;14.30;;;12.80;;
9807;SDS011;4943;52.550;13.462;2023-03-02T09:16:06;13.80;;;11.90;;
9807;SDS011;4943;52.550;13.462;2023-03-02T09:18:34;10.90;;;8.70;;
9807;SDS011;4943;52.550;13.462;2023-03-02T09:21:04;13.90;;;9.50;;
9807;SDS011;4943;52.550;13.462;2023-03-02T09:23:32;13.03;;;10.70;;
9807;SDS011;4943;52.550;13.462;2023-03-02T09:26:02;8.83;;;8.03;;
9807;SDS011;4943;52.550;13.462;2023-03-02T09:28:31;10.37;;;9.33;;
9807;SDS011;4943;52.550;13.462;2023-03-02T09:31:01;16.50;;;14.23;;
9807;SDS011;4943;52.550;13.462;2023-03-02T09:33:31;18.50;;;14.10;;
9807;SDS011;4943;52.550;13.462;2023-03-02T09:36:03;13.90;;;12.50;;
9807;SDS011;4943;52.550;13.462;2023-03-02T09:38:34;19.17;;;14.03;;
9807;SDS011;4943;52.550;13.462;2023-03-02T09:41:06;20.33;;;16.43;;
9807;SDS011;4943;52.550;13.462;2023-03-02T09:43:50;16.80;;;14.97;;
9807;SDS011;4943;52.550;13.462;2023-03-02T09:46:26;17.10;;;15.33;;
9807;SDS011;4943;52.550;13.462;2023-03-02T09:49:04;14.73;;;11.97;;
9807;SDS011;4943;52.550;13.462;2023-03-02T09:51:42;14.30;;;12.73;;
9807;SDS011;4943;52.550;13.462;2023-03-02T09:54:14;13.30;;;12.10;;
9807;SDS011;4943;52.550;13.462;2023-03-02T09:56:46;10.50;;;9.53;;
9807;SDS011;4943;52.550;13.462;2023-03-02T09:59:20;12.40;;;10.27;;
9807;SDS011;4943;52.550;13.462;2023-03-02T10:01:53;16.50;;;14.83;;
9807;SDS011;4943;52.550;13.462;2023-03-02T10:04:28;16.60;;;14.97;;
9807;SDS011;4943;52.550;13.462;2023-03-02T10:07:00;16.37;;;14.30;;
9807;SDS011;4943;52.550;13.462;2023-03-02T10:09:37;15.57;;;13.13;;
9807;SDS011;4943;52.550;13.462;2023-03-02T10:12:22;13.57;;;12.30;;
9807;SDS011;4943;52.550;13.462;2023-03-02T10:15:09;10.87;;;9.67;;
9807;SDS011;4943;52.550;13.462;2023-03-02T10:17:43;14.67;;;13.33;;
9807;SDS011;4943;52.550;13.462;2023-03-02T10:20:23;22.93;;;18.57;;
9807;SDS011;4943;52.550;13.462;2023-03-02T10:23:02;31.77;;;23.23;;
9807;SDS011;4943;52.550;13.462;2023-03-02T10:25:42;31.47;;;22.77;;
9807;SDS011;4943;52.550;13.462;2023-03-02T10:28:15;23.27;;;20.13;;
9807;SDS011;4943;52.550;13.462;2023-03-02T10:30:47;25.47;;;20.73;;
9807;SDS011;4943;52.550;13.462;2023-03-02T10:48:30;20.23;;;18.23;;
9807;SDS011;4943;52.550;13.462;2023-03-02T10:51:06;23.60;;;18.77;;
9807;SDS011;4943;52.550;13.462;2023-03-02T10:53:48;13.50;;;12.27;;
9807;SDS011;4943;52.550;13.462;2023-03-02T10:56:17;17.63;;;13.60;;
9807;SDS011;4943;52.550;13.462;2023-03-02T10:58:47;7.93;;;6.90;;
9807;SDS011;4943;52.550;13.462;2023-03-02T11:01:16;10.13;;;9.23;;
9807;SDS011;4943;52.550;13.462;2023-03-02T11:03:54;8.50;;;8.00;;
9807;SDS011;4943;52.550;13.462;2023-03-02T11:06:23;9.50;;;8.70;;
9807;SDS011;4943;52.550;13.462;2023-03-02T11:08:58;9.17;;;7.90;;
9807;SDS011;4943;52.550;13.462;2023-03-02T11:11:27;16.60;;;13.07;;
9807;SDS011;4943;52.550;13.462;2023-03-02T11:14:06;15.60;;;14.40;;
9807;SDS011;4943;52.550;13.462;2023-03-02T11:16:35;30.63;;;23.17;;
9807;SDS011;4943;52.550;13.462;2023-03-02T11:19:06;29.17;;;23.23;;
9807;SDS011;4943;52.550;13.462;2023-03-02T11:21:39;32.73;;;24.47;;
9807;SDS011;4943;52.550;13.462;2023-03-02T11:24:11;32.57;;;25.20;;
9807;SDS011;4943;52.550;13.462;2023-03-02T11:26:43;37.20;;;26.73;;
9807;SDS011;4943;52.550;13.462;2023-03-02T11:29:18;24.20;;;20.50;;
9807;SDS011;4943;52.550;13.462;2023-03-02T11:31:57;24.17;;;21.67;;
9807;SDS011;4943;52.550;13.462;2023-03-02T11:34:32;30.57;;;27.00;;
9807;SDS011;4943;52.550;13.462;2023-03-02T11:37:14;23.47;;;20.90;;
9807;SDS011;4943;52.550;13.462;2023-03-02T11:39:53;22.43;;;19.90;;
9807;SDS011;4943;52.550;13.462;2023-03-02T11:42:28;30.23;;;24.33;;
9807;SDS011;4943;52.550;13.462;2023-03-02T11:45:00;24.60;;;20.30;;
9807;SDS011;4943;52.550;13.462;2023-03-02T11:47:30;21.83;;;19.73;;
9807;SDS011;4943;52.550;13.462;2023-03-02T11:50:01;34.50;;;26.77;;
9807;SDS011;4943;52.550;13.462;2023-03-02T11:52:31;24.30;;;22.10;;
9807;SDS011;4943;52.550;13.462;2023-03-02T11:55:14;38.50;;;29.67;;
9807;SDS011;4943;52.550;13.462;2023-03-02T11:57:45;34.17;;;26.37;;
9807;SDS011;4943;52.550;13.462;2023-03-02T12:00:21;41.97;;;30.70;;
9807;SDS011;4943;52.550;13.462;2023-03-02T12:02:59;28.37;;;24.40;;
9807;SDS011;4943;52.550;13.462;2023-03-02T12:05:31;38.87;;;29.83;;
9807;SDS011;4943;52.550;13.462;2023-03-02T12:08:02;28.30;;;25.40;;
9807;SDS011;4943;52.550;13.462;2023-03-02T12:10:34;31.93;;;28.73;;
9807;SDS011;4943;52.550;13.462;2023-03-02T12:13:09;32.13;;;25.77;;
9807;SDS011;4943;52.550;13.462;2023-03-02T12:15:42;40.30;;;27.10;;
9807;SDS011;4943;52.550;13.462;2023-03-02T12:21:14;25.17;;;22.60;;
9807;SDS011;4943;52.550;13.462;2023-03-02T12:23:54;18.50;;;16.57;;
9807;SDS011;4943;52.550;13.462;2023-03-02T12:26:26;49.47;;;34.63;;
9807;SDS011;4943;52.550;13.462;2023-03-02T12:28:59;20.33;;;18.23;;
9807;SDS011;4943;52.550;13.462;2023-03-02T12:31:41;13.43;;;11.47;;
9807;SDS011;4943;52.550;13.462;2023-03-02T12:34:24;13.00;;;11.73;;
9807;SDS011;4943;52.550;13.462;2023-03-02T12:36:59;30.50;;;27.43;;
9807;SDS011;4943;52.550;13.462;2023-03-02T12:39:35;27.97;;;24.73;;
9807;SDS011;4943;52.550;13.462;2023-03-02T12:45:17;23.17;;;12.30;;
9807;SDS011;4943;52.550;13.462;2023-03-02T12:48:00;27.00;;;15.67;;
9807;SDS011;4943;52.550;13.462;2023-03-02T12:50:32;17.20;;;14.70;;
9807;SDS011;4943;52.550;13.462;2023-03-02T12:53:15;12.20;;;9.50;;
9807;SDS011;4943;52.550;13.462;2023-03-02T12:55:44;23.47;;;13.17;;
9807;SDS011;4943;52.550;13.462;2023-03-02T12:58:15;22.73;;;15.07;;
9807;SDS011;4943;52.550;13.462;2023-03-02T13:00:48;15.63;;;11.17;;
9807;SDS011;4943;52.550;13.462;2023-03-02T13:03:23;16.57;;;8.90;;
9807;SDS011;4943;52.550;13.462;2023-03-02T13:05:58;15.43;;;10.17;;
9807;SDS011;4943;52.550;13.462;2023-03-02T13:08:29;27.13;;;19.73;;
9807;SDS011;4943;52.550;13.462;2023-03-02T13:10:59;12.27;;;9.97;;
9807;SDS011;4943;52.550;13.462;2023-03-02T13:13:33;12.20;;;10.97;;
9807;SDS011;4943;52.550;13.462;2023-03-02T13:16:05;10.50;;;8.47;;
9807;SDS011;4943;52.550;13.462;2023-03-02T13:18:44;18.00;;;13.40;;
9807;SDS011;4943;52.550;13.462;2023-03-02T13:21:14;28.63;;;14.53;;
9807;SDS011;4943;52.550;13.462;2023-03-02T13:23:47;32.90;;;13.37;;
9807;SDS011;4943;52.550;13.462;2023-03-02T13:26:23;22.33;;;13.73;;
9807;SDS011;4943;52.550;13.462;2023-03-02T13:28:59;26.50;;;15.43;;
9807;SDS011;4943;52.550;13.462;2023-03-02T13:31:28;27.63;;;15.53;;
9807;SDS011;4943;52.550;13.462;2023-03-02T13:33:58;32.30;;;18.77;;
9807;SDS011;4943;52.550;13.462;2023-03-02T13:36:26;29.87;;;17.17;;
9807;SDS011;4943;52.550;13.462;2023-03-02T13:38:58;28.83;;;15.73;;
9807;SDS011;4943;52.550;13.462;2023-03-02T13:41:27;28.17;;;15.87;;
9807;SDS011;4943;52.550;13.462;2023-03-02T13:43:57;27.93;;;16.00;;
9807;SDS011;4943;52.550;13.462;2023-03-02T13:46:27;30.63;;;16.03;;
9807;SDS011;4943;52.550;13.462;2023-03-02T13:49:01;34.77;;;17.40;;
9807;SDS011;4943;52.550;13.462;2023-03-02T13:51:36;33.33;;;18.50;;
9807;SDS011;4943;52.550;13.462;2023-03-02T13:54:13;32.33;;;17.93;;
9807;SDS011;4943;52.550;13.462;2023-03-02T13:56:47;33.07;;;16.57;;
9807;SDS011;4943;52.550;13.462;2023-03-02T13:59:17;15.03;;;10.73;;
9807;SDS011;4943;52.550;13.462;2023-03-02T14:01:47;34.17;;;21.60;;
9807;SDS011;4943;52.550;13.462;2023-03-02T14:04:16;22.57;;;12.90;;
9807;SDS011;4943;52.550;13.462;2023-03-02T14:06:48;22.27;;;15.30;;
9807;SDS011;4943;52.550;13.462;2023-03-02T14:09:17;11.07;;;9.83;;
9807;SDS011;4943;52.550;13.462;2023-03-02T14:11:46;12.80;;;9.67;;
9807;SDS011;4943;52.550;13.462;2023-03-02T14:14:16;14.33;;;11.87;;
9807;SDS011;4943;52.550;13.462;2023-03-02T14:16:47;13.03;;;10.90;;
9807;SDS011;4943;52.550;13.462;2023-03-02T14:19:16;14.57;;;10.07;;
9807;SDS011;4943;52.550;13.462;2023-03-02T14:21:45;18.23;;;14.30;;
9807;SDS011;4943;52.550;13.462;2023-03-02T14:24:13;13.30;;;12.00;;
9807;SDS011;4943;52.550;13.462;2023-03-02T14:26:43;12.03;;;10.93;;
9807;SDS011;4943;52.550;13.462;2023-03-02T14:29:15;17.67;;;16.03;;
9807;SDS011;4943;52.550;13.462;2023-03-02T14:31:48;12.33;;;10.93;;
9807;SDS011;4943;52.550;13.462;2023-03-02T14:34:16;12.63;;;11.60;;
9807;SDS011;4943;52.550;13.462;2023-03-02T14:36:45;13.40;;;12.17;;
9807;SDS011;4943;52.550;13.462;2023-03-02T14:39:18;12.90;;;11.93;;
9807;SDS011;4943;52.550;13.462;2023-03-02T14:41:50;15.17;;;13.67;;
9807;SDS011;4943;52.550;13.462;2023-03-02T14:44:20;20.27;;;18.30;;
9807;SDS011;4943;52.550;13.462;2023-03-02T14:46:48;19.67;;;17.83;;
9807;SDS011;4943;52.550;13.462;2023-03-02T14:49:16;21.23;;;19.00;;
9807;SDS011;4943;52.550;13.462;2023-03-02T14:51:46;34.73;;;25.30;;
9807;SDS011;4943;52.550;13.462;2023-03-02T14:54:21;35.80;;;31.27;;
9807;SDS011;4943;52.550;13.462;2023-03-02T14:56:51;40.43;;;31.57;;
9807;SDS011;4943;52.550;13.462;2023-03-02T14:59:19;35.13;;;26.50;;
9807;SDS011;4943;52.550;13.462;2023-03-02T15:01:47;32.77;;;26.63;;
9807;SDS011;4943;52.550;13.462;2023-03-02T15:04:15;29.97;;;26.23;;
9807;SDS011;4943;52.550;13.462;2023-03-02T15:06:44;40.13;;;31.47;;
9807;SDS011;4943;52.550;13.462;2023-03-02T15:09:12;40.13;;;31.53;;
9807;SDS011;4943;52.550;13.462;2023-03-02T15:11:40;51.70;;;34.40;;
9807;SDS011;4943;52.550;13.462;2023-03-02T15:14:10;40.00;;;27.87;;
9807;SDS011;4943;52.550;13.462;2023-03-02T15:16:38;38.33;;;30.17;;
9807;SDS011;4943;52.550;13.462;2023-03-02T15:19:08;45.07;;;32.27;;
9807;SDS011;4943;52.550;13.462;2023-03-02T15:21:36;44.33;;;34.80;;
9807;SDS011;4943;52.550;13.462;2023-03-02T15:24:09;25.80;;;20.73;;
9807;SDS011;4943;52.550;13.462;2023-03-02T15:26:38;45.90;;;33.43;;
9807;SDS011;4943;52.550;13.462;2023-03-02T15:29:07;52.97;;;34.13;;
9807;SDS011;4943;52.550;13.462;2023-03-02T15:31:36;37.93;;;30.07;;
9807;SDS011;4943;52.550;13.462;2023-03-02T15:34:04;37.93;;;29.53;;
9807;SDS011;4943;52.550;13.462;2023-03-02T15:36:33;31.07;;;27.40;;
9807;SDS011;4943;52.550;13.462;2023-03-02T15:39:01;25.40;;;23.03;;
9807;SDS011;4943;52.550;13.462;2023-03-02T15:41:29;42.73;;;33.13;;
9807;SDS011;4943;52.550;13.462;2023-03-02T15:43:57;24.90;;;19.57;;